DNAA

Nnamdi Azikiwe International Airport

Abuja, Nigeria
METAR DNAA 241300Z 24007KT 200V280 9999 BKN013 31/22 Q1011 NOSIG
Observed Flight Rules
May-24 @ 13:00 UTC (50 minutes ago) Marginal Visual Flight Rules
Wind Visibility Clouds
240° at 7 knots 10,000+ meters
  • Broken at 1,300' AGL
Temperatures Readings
Current 31°C / 88°F
Dewpoint 22°C / 72°F
Humidity 59%
Altimeter 29.85" Hg
Pressure 1011 hPa
Elevation 344
METAR DNAA 241300Z 24007KT 200V280 9999 BKN013 31/22 Q1011 NOSIG
Observed Flight Rules
May-24 @ 13:00 UTC
(50 minutes ago)
MVFR
Wind Visibility
240° at 7 knots 10,000+ meters
Clouds
  • Broken at 1,300' AGL
Temperature Dewpoint
31°C / 88°F 22°C / 72°F
Humidity Altimeter Pressure
59% 29.85" Hg 1011 hPa